Latest Weather Observations for Gayndah

IDQ60801

Issued at 5:02 pm EST Thursday 23 February 2017 (issued every 30 minutes, with the page automatically refreshed every 10 minutes)

About weather observations | Map of weather stations | Latest weather observations for QLD | Other Formats
Station Details ID: 039066 Name: GAYNDAH AIRPORT Lat: -25.62 Lon: 151.62 Height: 110.9 m
Data from the previous 72 hours. | See also: Recent months at Gayndah
Date/Time
EST
Temp
°C
App
Temp
°C
Dew
Point
°C
Rel
Hum
%
Delta-T
°C
Wind Press
QNH
hPa
Press
MSL
hPa
Rain since
9am
mm
Dir  Spd
km/h
Gust
km/h
Spd
kts
Gust
kts
23/04:30pm 33.7 31.3 12.7 28 12.6 E 17 26 9 14 1014.1 1013.5 0.0
23/04:00pm 33.6 31.2 12.6 28 12.6 E 17 30 9 16 1014.0 1013.4 0.0
23/03:30pm 33.5 31.8 12.5 28 12.6 NE 13 26 7 14 1014.1 1013.5 0.0
23/03:00pm 33.9 32.3 12.8 28 12.7 ESE 13 26 7 14 1014.5 1013.8 0.0
23/02:30pm 34.1 31.4 13.0 28 12.8 ENE 19 32 10 17 1014.8 1014.1 0.0
23/02:00pm 33.3 30.6 12.9 29 12.3 E 19 32 10 17 1015.2 1014.5 0.0
23/01:30pm 33.1 31.4 13.7 31 11.8 E 15 28 8 15 1015.5 1014.8 0.0
23/01:00pm 32.8 32.3 13.9 31 11.5 NNE 9 20 5 11 1016.0 1015.3 0.0
23/12:30pm 30.9 28.4 12.3 32 11.0 ESE 17 30 9 16 1016.5 1015.8 0.0
23/12:00pm 31.2 29.5 13.5 34 10.7 E 15 24 8 13 1016.7 1016.0 0.0
23/11:30am 31.1 29.7 13.4 34 10.7 E 13 24 7 13 1017.2 1016.5 0.0
23/11:00am 30.4 29.3 13.2 35 10.3 NE 11 19 6 10 1017.7 1017.0 0.0
23/10:30am 30.0 28.6 13.3 36 10.0 ENE 13 20 7 11 1018.2 1017.5 0.0
23/10:00am 28.6 28.4 13.7 40 8.9 ENE 7 17 4 9 1018.4 1017.8 0.0
23/09:30am 27.4 26.5 13.7 43 8.2 E 11 24 6 13 1018.7 1018.1 0.0
23/09:00am 26.9 25.7 14.0 45 7.7 ESE 13 20 7 11 1018.8 1018.2 0.0
23/08:30am 26.1 24.4 14.6 49 6.9 SE 17 22 9 12 1018.7 1018.1 0.0
23/08:00am 24.9 24.8 15.0 54 6.0 SSE 9 19 5 10 1018.6 1018.0 0.0
23/07:30am 23.6 23.7 15.4 60 4.9 SSE 9 13 5 7 1018.5 1017.9 0.0
23/07:00am 22.4 23.3 16.0 67 3.9 SSE 6 9 3 5 1018.2 1017.5 0.0
23/06:30am 20.7 21.9 15.9 74 2.9 SW 4 6 2 3 1018.1 1017.4 0.0
23/06:00am 20.9 22.7 15.4 71 3.3 CALM 0 0 0 0 1017.9 1017.2 0.0
23/05:30am 21.1 22.9 15.4 70 3.4 CALM 0 2 0 1 1017.6 1016.9 0.0
23/05:00am 21.5 22.8 15.1 67 3.8 SSE 2 6 1 3 1017.4 1016.7 0.0
23/04:30am 21.9 22.6 15.5 67 3.8 SSE 6 7 3 4 1017.2 1016.5 0.0
23/04:00am 21.9 23.0 15.5 67 3.8 SSW 4 6 2 3 1017.1 1016.4 0.0
23/03:30am 22.3 23.0 15.6 66 4.0 SE 6 7 3 4 1017.1 1016.4 0.0
23/03:00am 22.8 23.5 15.6 64 4.3 SSE 6 6 3 3 1017.3 1016.6 0.0
23/02:30am 23.0 23.6 15.3 62 4.6 ESE 6 9 3 5 1017.1 1016.4 0.0
23/02:00am 23.4 23.5 15.5 61 4.8 ESE 9 15 5 8 1017.4 1016.7 0.0
23/01:30am 23.5 24.2 15.5 60 4.8 ESE 6 11 3 6 1017.7 1017.0 0.0
23/01:00am 23.7 24.4 16.0 62 4.7 ESE 7 9 4 5 1017.9 1017.2 0.0
23/12:30am 23.8 24.6 15.8 61 4.9 ESE 6 7 3 4 1018.3 1017.7 0.0
23/12:00am 24.2 23.7 15.9 59 5.0 E 13 19 7 10 1018.4 1017.8 0.0
 
Date/Time
EST
Temp
°C
App
Temp
°C
Dew
Point
°C
Rel
Hum
%
Delta-T
°C
Wind Press
QNH
hPa
Press
MSL
hPa
Rain since
9am
mm
Dir  Spd
km/h
Gust
km/h
Spd
kts
Gust
kts
22/11:30pm 24.2 24.5 15.9 59 5.1 E 9 13 5 7 1018.6 1018.0 0.0
22/11:00pm 24.4 23.4 15.6 58 5.3 E 15 24 8 13 1018.5 1017.9 0.0
22/10:30pm 24.6 23.6 15.5 57 5.5 E 15 22 8 12 1018.5 1017.9 0.0
22/10:00pm 24.7 24.0 15.3 56 5.7 E 13 19 7 10 1018.7 1018.1 0.0
22/09:30pm 24.9 23.8 15.2 54 5.9 E 15 20 8 11 1018.4 1017.8 0.0
22/09:00pm 25.3 23.9 15.6 55 5.9 ENE 17 28 9 15 1018.2 1017.5 0.0
22/08:30pm 25.6 24.7 15.9 55 5.9 ENE 15 22 8 12 1017.8 1017.1 0.0
22/08:00pm 25.9 24.8 15.3 52 6.4 E 15 22 8 12 1017.3 1016.6 0.0
22/07:30pm 26.3 23.7 15.0 49 6.8 ESE 22 33 12 18 1016.9 1016.2 0.0
22/07:00pm 26.7 24.6 15.1 49 7.0 ESE 20 37 11 20 1016.3 1015.6 0.0
22/06:30pm 27.2 24.6 14.9 47 7.5 E 22 33 12 18 1016.1 1015.4 0.0
22/06:00pm 28.1 25.8 15.7 46 7.6 E 22 35 12 19 1015.7 1015.0 0.0
22/05:30pm 29.0 26.8 15.9 45 8.1 E 22 33 12 18 1015.3 1014.6 0.0
22/05:00pm 30.0 27.9 15.3 41 9.1 ESE 20 32 11 17 1014.9 1014.2 0.0
22/04:30pm 30.7 28.6 15.2 39 9.6 ESE 20 30 11 16 1014.5 1013.8 0.0
22/04:00pm 31.5 29.1 12.8 32 11.2 E 17 26 9 14 1014.5 1013.8 0.0
22/03:30pm 31.8 29.5 13.1 32 11.2 ESE 17 28 9 15 1014.6 1013.9 0.0
22/03:00pm 32.1 30.3 13.3 31 11.3 ESE 15 22 8 12 1014.7 1014.0 0.0
22/02:30pm 32.1 30.3 13.3 31 11.3 SE 15 33 8 18 1014.8 1014.1 0.0
22/02:00pm 32.2 30.4 13.4 32 11.4 SE 15 22 8 12 1015.2 1014.5 0.0
22/01:30pm 32.1 30.5 13.8 33 11.1 ESE 15 24 8 13 1015.5 1014.8 0.0
22/01:00pm 31.7 29.9 14.4 35 10.6 E 17 32 9 17 1015.9 1015.2 0.0
22/12:30pm 31.4 29.6 14.5 35 10.4 E 17 28 9 15 1016.2 1015.5 0.0
22/12:00pm 30.8 28.7 14.8 37 9.8 ESE 19 26 10 14 1016.8 1016.1 0.0
22/11:30am 30.0 27.8 14.9 39 9.3 E 20 32 11 17 1017.2 1016.5 0.0
22/11:00am 30.2 28.2 15.5 41 9.1 E 20 32 11 17 1017.6 1016.9 0.0
22/10:30am 30.4 27.3 14.5 38 9.7 E 24 32 13 17 1017.8 1017.1 0.0
22/10:00am 30.1 28.1 15.0 40 9.3 E 19 28 10 15 1018.2 1017.5 0.0
22/09:30am 27.4 26.8 15.7 48 7.2 ESE 13 24 7 13 1018.5 1017.9 0.0
22/09:00am 26.8 25.5 15.8 51 6.7 E 17 28 9 15 1018.6 1018.0 -
22/08:30am 26.5 26.7 16.7 55 6.1 ESE 11 19 6 10 1018.7 1018.1 -
22/08:00am 26.5 27.2 17.0 56 5.9 SE 9 13 5 7 1018.7 1018.1 -
22/07:30am 24.7 25.7 16.9 62 4.8 SE 7 13 4 7 1018.4 1017.8 -
22/07:00am 23.9 25.6 17.2 66 4.2 SSE 4 6 2 3 1018.4 1017.8 -
22/06:30am 22.3 24.7 17.0 72 3.3 CALM 0 0 0 0 1018.0 1017.3 -
22/06:00am 22.0 24.1 16.3 70 3.5 CALM 0 2 0 1 1017.8 1017.1 -
22/05:30am 22.4 24.0 16.9 71 3.4 SW 4 6 2 3 1017.8 1017.1 -
22/05:00am 22.9 24.8 16.7 68 3.8 ENE 2 4 1 2 1017.1 1016.4 -
22/04:30am 23.4 24.9 16.7 66 4.1 ENE 4 6 2 3 1016.8 1016.1 -
22/04:00am 23.8 24.8 16.8 65 4.3 ESE 7 11 4 6 1016.7 1016.0 -
22/03:30am 24.1 24.0 16.9 64 4.5 ESE 13 20 7 11 1016.7 1016.0 -
22/03:00am 24.3 24.1 16.8 63 4.6 ESE 13 22 7 12 1016.8 1016.1 -
22/02:30am 24.3 24.3 17.1 64 4.5 ESE 13 20 7 11 1016.5 1015.8 -
22/02:00am 24.5 24.1 17.2 63 4.5 E 15 20 8 11 1016.4 1015.7 -
22/01:30am 24.6 23.9 17.3 64 4.6 E 17 24 9 13 1016.6 1015.9 -
22/01:00am 24.8 23.7 17.3 63 4.7 ESE 19 26 10 14 1016.8 1016.1 -
22/12:30am 25.0 24.4 17.5 63 4.7 ESE 17 26 9 14 1017.0 1016.3 -
22/12:00am 25.4 25.3 17.8 62 4.8 ESE 15 22 8 12 1017.1 1016.4 -
 
Date/Time
EST
Temp
°C
App
Temp
°C
Dew
Point
°C
Rel
Hum
%
Delta-T
°C
Wind Press
QNH
hPa
Press
MSL
hPa
Rain since
9am
mm
Dir  Spd
km/h
Gust
km/h
Spd
kts
Gust
kts
21/11:30pm 25.5 26.7 18.2 64 4.6 E 9 13 5 7 1016.9 1016.2 -
21/11:00pm 25.7 26.8 18.1 63 4.8 E 9 15 5 8 1016.9 1016.2 -
21/10:30pm 25.5 26.5 17.7 62 4.9 E 9 15 5 8 1016.9 1016.2 -
21/10:00pm 25.9 25.7 17.5 59 5.3 E 15 20 8 11 1016.8 1016.1 -
21/09:30pm 26.3 25.4 16.8 56 5.9 E 17 24 9 13 1016.8 1016.1 -
21/09:00pm 26.9 25.1 15.9 51 6.8 E 20 33 11 18 1016.6 1015.9 0.0
21/08:30pm 27.5 25.4 15.2 47 7.5 E 20 26 11 14 1016.4 1015.7 -
21/08:00pm 28.1 25.8 15.7 46 7.6 E 22 32 12 17 1015.8 1015.1 -
21/07:30pm 28.6 26.7 16.8 48 7.4 NE 22 32 12 17 1015.3 1014.6 -
21/07:00pm 29.3 25.9 16.8 47 7.9 NE 30 39 16 21 1014.8 1014.1 -
21/06:30pm 30.5 26.6 15.4 40 9.3 ENE 30 39 16 21 1014.1 1013.5 -
21/06:00pm 31.8 28.4 15.7 37 10.1 ENE 28 37 15 20 1013.4 1012.8 -
21/05:30pm 33.1 29.8 15.1 33 11.2 ENE 26 32 14 17 1012.8 1012.2 -
21/05:00pm 34.6 34.2 11.1 24 13.9 NNE 4 7 2 4 1012.4 1011.8 -
21/04:30pm 34.7 33.8 11.2 24 13.9 ENE 7 11 4 6 1012.2 1011.6 -
21/04:00pm 36.0 33.7 11.6 23 14.6 ESE 15 22 8 12 1012.2 1011.6 -
21/03:30pm 35.9 33.7 10.9 22 14.8 E 13 20 7 11 1012.1 1011.5 -
21/03:00pm 34.9 32.7 10.7 23 14.2 SE 13 22 7 12 1012.2 1011.6 -
21/02:30pm 35.8 34.0 12.1 24 14.2 SE 13 20 7 11 1012.6 1012.0 -
21/02:00pm 36.4 35.3 11.9 23 14.7 SSW 9 20 5 11 1012.6 1012.0 -
21/01:30pm 35.7 33.9 10.7 22 14.7 NE 11 20 6 11 1013.0 1012.4 0.0
21/01:00pm 34.9 33.4 10.7 23 14.2 ENE 9 17 5 9 1013.4 1012.8 0.0
21/12:30pm 34.6 33.8 12.9 27 13.1 SE 9 20 5 11 1013.8 1013.2 0.0
21/12:00pm 34.9 34.4 13.7 28 13.0 ENE 9 19 5 10 1014.3 1013.6 0.0
21/11:30am 32.4 31.1 13.6 32 11.4 NE 13 30 7 16 1014.8 1014.1 0.0
21/11:00am 32.8 32.1 14.4 33 11.3 ENE 11 20 6 11 1015.2 1014.5 0.0
21/10:30am 31.0 31.2 15.8 40 9.5 ESE 9 17 5 9 1015.8 1015.1 0.0
21/10:00am 31.3 31.6 16.9 42 9.1 ENE 11 24 6 13 1016.0 1015.3 0.0
21/09:30am 30.3 30.4 18.4 49 7.7 E 15 22 8 12 1016.1 1015.4 0.0
21/09:00am 29.2 29.8 18.6 52 6.8 E 13 22 7 12 1016.3 1015.6 0.0
21/08:30am 27.9 28.3 18.9 58 5.8 E 15 22 8 12 1016.3 1015.6 0.0
21/08:00am 27.1 28.2 19.7 64 4.8 E 13 19 7 10 1016.3 1015.6 0.0
21/07:30am 26.6 28.6 20.0 67 4.3 E 9 17 5 9 1016.3 1015.6 0.0
21/07:00am 24.7 26.9 19.3 72 3.5 SSE 6 7 3 4 1016.0 1015.3 0.0
21/06:30am 23.6 25.8 19.1 76 2.9 SSE 6 7 3 4 1015.6 1014.9 0.0
21/06:00am 22.1 24.0 18.5 80 2.3 SSE 6 7 3 4 1015.2 1014.5 0.0
21/05:30am 21.9 24.0 18.1 79 2.4 SSE 4 6 2 3 1014.8 1014.1 0.0
21/05:00am 22.2 24.0 18.4 79 2.4 SSE 6 7 3 4 1014.6 1013.9 0.0
21/04:30am 22.6 24.4 18.4 77 2.6 SSE 6 7 3 4 1013.9 1013.3 0.0
21/04:00am 22.9 25.3 18.7 77 2.7 SSE 4 6 2 3 1013.7 1013.1 0.0
21/03:30am 22.9 25.7 18.0 74 3.1 CALM 0 4 0 2 1013.2 1012.6 0.0
21/03:00am 23.5 25.3 18.4 73 3.2 SE 6 6 3 3 1013.2 1012.6 0.0
21/02:30am 23.9 26.2 18.5 72 3.4 ESE 4 4 2 2 1013.2 1012.6 0.0
21/02:00am 23.8 25.6 18.2 71 3.5 SE 6 6 3 3 1013.2 1012.6 0.0
21/01:30am 23.7 25.5 17.4 68 3.9 SE 4 6 2 3 1013.2 1012.6 0.0
21/01:00am 23.9 26.3 16.9 65 4.3 CALM 0 0 0 0 1013.6 1013.0 0.0
21/12:30am 24.6 25.8 16.8 62 4.8 E 6 6 3 3 1013.6 1013.0 0.0
21/12:00am 25.4 26.4 16.8 59 5.3 E 7 7 4 4 1013.8 1013.2 0.0
 
Date/Time
EST
Temp
°C
App
Temp
°C
Dew
Point
°C
Rel
Hum
%
Delta-T
°C
Wind Press
QNH
hPa
Press
MSL
hPa
Rain since
9am
mm
Dir  Spd
km/h
Gust
km/h
Spd
kts
Gust
kts
20/11:30pm 25.9 26.6 17.0 58 5.6 ENE 9 15 5 8 1013.8 1013.2 0.0
20/11:00pm 26.3 26.6 17.9 60 5.3 ENE 13 17 7 9 1013.8 1013.2 0.0
20/10:30pm 26.6 28.0 19.5 65 4.6 NE 11 17 6 9 1013.6 1013.0 0.0
20/10:00pm 27.1 28.2 19.7 64 4.8 NE 13 17 7 9 1013.5 1012.9 0.0
20/09:30pm 27.6 29.8 19.1 59 5.5 ENE 6 9 3 5 1013.5 1012.9 0.0
20/09:00pm 28.1 30.2 19.3 58 5.7 ENE 7 11 4 6 1013.2 1012.6 0.0
20/08:30pm 29.7 27.2 8.2 26 11.8 ESE 11 15 6 8 1012.5 1011.9 0.0
20/08:00pm 29.3 26.9 7.2 25 11.9 SSE 9 13 5 7 1011.7 1011.1 0.0
20/07:30pm 30.5 26.6 7.0 23 12.7 S 17 22 9 12 1011.1 1010.5 0.0
20/07:00pm 30.9 28.2 7.4 23 12.9 SSW 11 17 6 9 1010.5 1009.9 0.0
20/06:30pm 31.2 28.2 7.6 23 13.0 SW 13 20 7 11 1010.1 1009.4 0.0
20/06:00pm 32.8 29.6 8.3 22 13.7 SW 15 19 8 10 1009.6 1008.9 0.0
20/05:30pm 33.0 31.6 9.7 24 13.4 SSW 7 15 4 8 1009.1 1008.4 0.0

Other Formats:

Comma delimited format used in spreadsheet applications
http://www.bom.gov.au/fwo/IDQ60801/IDQ60801.95543.axf

JavaScript Object Notation format (JSON) in row-major order
http://www.bom.gov.au/fwo/IDQ60801/IDQ60801.95543.json